createdAt,value
2022-09-15T00:01:34.151Z,6.13
2022-09-15T00:04:01.448Z,5.63
2022-09-15T00:06:28.653Z,5.90
2022-09-15T00:08:55.831Z,5.85
2022-09-15T00:11:23.149Z,6.28
2022-09-15T00:13:50.443Z,6.32
2022-09-15T00:16:18.172Z,6.45
2022-09-15T00:18:46.031Z,6.28
2022-09-15T00:21:13.262Z,7.80
2022-09-15T00:23:40.447Z,7.72
2022-09-15T00:26:07.676Z,7.97
2022-09-15T00:28:34.846Z,6.78
2022-09-15T00:31:02.130Z,7.75
2022-09-15T00:33:29.351Z,6.28
2022-09-15T00:35:56.546Z,7.38
2022-09-15T00:38:23.750Z,7.03
2022-09-15T00:40:50.991Z,8.55
2022-09-15T00:43:18.157Z,7.78
2022-09-15T00:45:45.458Z,7.95
2022-09-15T00:48:12.665Z,7.07
2022-09-15T00:50:39.910Z,7.43
2022-09-15T00:53:08.302Z,8.05
2022-09-15T00:55:35.967Z,7.28
2022-09-15T00:58:03.436Z,7.43
2022-09-15T01:00:30.624Z,8.65
2022-09-15T01:02:57.914Z,8.50
2022-09-15T01:05:25.311Z,7.80
2022-09-15T01:07:52.493Z,7.53
2022-09-15T01:10:19.748Z,8.55
2022-09-15T01:12:46.923Z,7.95
2022-09-15T01:15:14.184Z,8.80
2022-09-15T01:17:41.406Z,7.70
2022-09-15T01:20:08.646Z,8.13
2022-09-15T01:22:35.861Z,6.53
2022-09-15T01:25:03.105Z,6.45
2022-09-15T01:27:42.143Z,6.68
2022-09-15T01:30:09.951Z,6.90
2022-09-15T01:32:56.064Z,7.18
2022-09-15T01:35:23.618Z,6.90
2022-09-15T01:37:50.813Z,6.57
2022-09-15T01:40:18.089Z,6.95
2022-09-15T01:42:45.363Z,7.97
2022-09-15T01:45:12.633Z,7.30
2022-09-15T01:47:39.780Z,7.43
2022-09-15T01:50:07.081Z,7.97
2022-09-15T01:52:34.265Z,8.40
2022-09-15T01:55:01.780Z,8.40
2022-09-15T01:57:29.026Z,7.65
2022-09-15T01:59:56.304Z,7.60
2022-09-15T02:02:23.556Z,8.52
2022-09-15T02:04:50.864Z,7.90
2022-09-15T02:07:20.597Z,8.13
2022-09-15T02:09:48.520Z,10.25
2022-09-15T02:12:15.715Z,10.90
2022-09-15T02:14:43.530Z,10.40
2022-09-15T02:17:10.673Z,10.40
2022-09-15T02:19:38.184Z,10.18
2022-09-15T02:22:07.686Z,12.48
2022-09-15T02:24:35.522Z,11.65
2022-09-15T02:27:02.831Z,12.27
2022-09-15T02:29:30.086Z,12.30
2022-09-15T02:31:57.413Z,13.35
2022-09-15T02:34:24.718Z,12.40
2022-09-15T02:36:52.274Z,11.23
2022-09-15T02:39:19.546Z,10.25
2022-09-15T02:41:46.747Z,9.95
2022-09-15T02:44:15.121Z,10.88
2022-09-15T02:46:42.273Z,9.88
2022-09-15T02:49:09.612Z,10.15
2022-09-15T02:51:36.838Z,11.95
2022-09-15T02:54:04.116Z,11.27
2022-09-15T02:56:31.333Z,10.43
2022-09-15T02:58:58.616Z,10.25
2022-09-15T03:01:25.846Z,11.40
2022-09-15T03:03:53.091Z,10.85
2022-09-15T03:06:21.582Z,11.15
2022-09-15T03:08:48.928Z,12.45
2022-09-15T03:11:16.241Z,12.32
2022-09-15T03:13:43.468Z,12.18
2022-09-15T03:16:10.814Z,12.60
2022-09-15T03:18:38.177Z,12.50
2022-09-15T03:21:05.936Z,12.23
2022-09-15T03:23:33.160Z,12.38
2022-09-15T03:26:00.365Z,12.25
2022-09-15T03:28:27.668Z,11.98
2022-09-15T03:30:54.827Z,11.93
2022-09-15T03:33:22.075Z,11.75
2022-09-15T03:35:49.277Z,11.82
2022-09-15T03:38:16.443Z,10.90
2022-09-15T03:40:43.756Z,11.98
2022-09-15T03:43:13.340Z,12.20
2022-09-15T03:45:42.853Z,13.63
2022-09-15T03:48:10.123Z,12.63
2022-09-15T03:50:37.364Z,14.85
2022-09-15T03:53:04.550Z,14.07
2022-09-15T03:55:31.759Z,13.80
2022-09-15T03:57:58.997Z,13.77
2022-09-15T04:00:26.218Z,13.80
2022-09-15T04:02:53.415Z,13.95
2022-09-15T04:05:20.649Z,14.75
2022-09-15T04:07:47.853Z,14.10
2022-09-15T04:10:15.122Z,15.30
2022-09-15T04:12:42.327Z,15.80
2022-09-15T04:15:09.514Z,15.95
2022-09-15T04:17:36.721Z,15.27
2022-09-15T04:20:03.889Z,15.82
2022-09-15T04:22:31.169Z,15.65
2022-09-15T04:24:58.389Z,14.35
2022-09-15T04:27:25.581Z,14.43
2022-09-15T04:29:52.740Z,14.70
2022-09-15T04:32:20.366Z,13.82
2022-09-15T04:34:47.541Z,13.50
2022-09-15T04:37:14.735Z,13.35
2022-09-15T04:39:42.477Z,13.13
2022-09-15T04:42:09.702Z,12.45
2022-09-15T04:44:36.895Z,11.68
2022-09-15T04:47:04.239Z,11.38
2022-09-15T04:49:31.734Z,11.40
2022-09-15T04:51:58.949Z,11.63
2022-09-15T04:54:26.109Z,11.00
2022-09-15T04:56:53.432Z,10.70
2022-09-15T04:59:20.699Z,11.07
2022-09-15T05:01:48.030Z,10.45
2022-09-15T05:04:15.266Z,11.30
2022-09-15T05:06:42.497Z,10.60
2022-09-15T05:09:10.585Z,10.80
2022-09-15T05:11:37.956Z,11.05
2022-09-15T05:14:05.245Z,10.70
2022-09-15T05:16:32.529Z,10.80
2022-09-15T05:18:59.794Z,9.90
2022-09-15T05:21:27.310Z,10.55
2022-09-15T05:23:54.576Z,10.65
2022-09-15T05:26:21.773Z,11.20
2022-09-15T05:28:48.980Z,10.05
2022-09-15T05:31:18.072Z,9.35
2022-09-15T05:33:45.414Z,9.40
2022-09-15T05:36:14.352Z,11.18
2022-09-15T05:38:41.706Z,9.68
2022-09-15T05:41:08.879Z,9.68
2022-09-15T05:43:36.109Z,9.73
2022-09-15T05:46:03.542Z,8.15
2022-09-15T05:48:30.860Z,8.25
2022-09-15T05:50:58.391Z,8.65
2022-09-15T05:53:25.625Z,8.52
2022-09-15T05:55:52.794Z,8.85
2022-09-15T05:58:19.993Z,9.02
2022-09-15T06:00:47.429Z,9.00
2022-09-15T06:03:14.675Z,8.52
2022-09-15T06:05:41.898Z,7.18
2022-09-15T06:08:09.422Z,8.15
2022-09-15T06:10:36.573Z,7.32
2022-09-15T06:13:03.817Z,8.55
2022-09-15T06:15:30.985Z,7.68
2022-09-15T06:17:58.193Z,6.93
2022-09-15T06:20:25.590Z,6.75
2022-09-15T06:22:52.890Z,7.03
2022-09-15T06:25:20.070Z,6.65
2022-09-15T06:27:47.368Z,6.90
2022-09-15T06:30:14.570Z,6.55
2022-09-15T06:32:44.181Z,6.78
2022-09-15T06:35:15.230Z,6.90
2022-09-15T06:37:42.384Z,7.68
2022-09-15T06:40:10.207Z,6.50
2022-09-15T06:42:37.430Z,6.53
2022-09-15T06:45:04.671Z,7.28
2022-09-15T06:47:34.168Z,6.55
2022-09-15T06:50:01.581Z,6.10
2022-09-15T06:52:28.788Z,6.40
2022-09-15T06:54:56.102Z,7.55
2022-09-15T06:57:23.328Z,6.72
2022-09-15T06:59:50.698Z,5.78
2022-09-15T07:02:18.023Z,6.97
2022-09-15T07:04:45.414Z,6.43
2022-09-15T07:07:12.680Z,5.97
2022-09-15T07:09:41.451Z,5.45
2022-09-15T07:12:09.881Z,6.07
2022-09-15T07:14:37.229Z,6.47
2022-09-15T07:17:04.427Z,6.13
2022-09-15T07:19:31.638Z,6.57
2022-09-15T07:21:58.829Z,5.78
2022-09-15T07:24:26.014Z,5.95
2022-09-15T07:26:53.569Z,5.93
2022-09-15T07:29:20.821Z,6.20
2022-09-15T07:31:48.032Z,6.40
2022-09-15T07:34:15.332Z,5.82
2022-09-15T07:36:42.572Z,6.05
2022-09-15T07:39:09.780Z,5.93
2022-09-15T07:41:37.036Z,6.15
2022-09-15T07:44:04.269Z,6.50
2022-09-15T07:46:31.520Z,6.90
2022-09-15T07:48:58.873Z,5.95
2022-09-15T07:51:26.173Z,6.32
2022-09-15T07:53:53.416Z,5.97
2022-09-15T07:56:21.001Z,5.90
2022-09-15T07:58:48.202Z,6.32
2022-09-15T08:01:15.595Z,6.07
2022-09-15T08:03:42.920Z,6.18
2022-09-15T08:06:10.199Z,6.32
2022-09-15T08:08:37.774Z,6.50
2022-09-15T08:11:04.988Z,6.10
2022-09-15T08:13:32.155Z,6.00
2022-09-15T08:15:59.466Z,9.38
2022-09-15T08:18:26.669Z,6.20
2022-09-15T08:20:54.225Z,6.75
2022-09-15T08:23:23.025Z,7.13
2022-09-15T08:25:51.663Z,7.25
2022-09-15T08:28:18.987Z,6.07
2022-09-15T08:30:46.286Z,6.88
2022-09-15T08:33:13.457Z,5.30
2022-09-15T08:35:40.716Z,6.65
2022-09-15T08:38:08.758Z,5.57
2022-09-15T08:40:36.058Z,6.15
2022-09-15T08:43:03.264Z,5.78
2022-09-15T08:45:30.480Z,6.45
2022-09-15T08:47:58.700Z,5.10
2022-09-15T08:50:27.436Z,6.13
2022-09-15T08:52:55.627Z,5.40
2022-09-15T08:55:23.718Z,5.55
2022-09-15T08:57:51.274Z,4.95
2022-09-15T09:00:18.550Z,5.10
2022-09-15T09:02:46.246Z,5.38
2022-09-15T09:05:13.594Z,5.03
2022-09-15T09:07:40.746Z,5.07
2022-09-15T09:10:08.105Z,5.72
2022-09-15T09:12:35.416Z,5.03
2022-09-15T09:15:03.081Z,5.97
2022-09-15T09:17:30.237Z,4.93
2022-09-15T09:19:57.563Z,4.60
2022-09-15T09:22:25.438Z,4.90
2022-09-15T09:24:52.678Z,5.22
2022-09-15T09:27:19.907Z,4.35
2022-09-15T09:29:50.699Z,4.32
2022-09-15T09:32:21.521Z,4.35
2022-09-15T09:34:49.139Z,4.07
2022-09-15T09:37:16.316Z,4.45
2022-09-15T09:39:43.586Z,4.60
2022-09-15T09:42:10.890Z,4.00
2022-09-15T09:44:38.169Z,5.05
2022-09-15T09:47:05.393Z,4.72
2022-09-15T09:49:34.335Z,5.45
2022-09-15T09:52:03.338Z,3.60
2022-09-15T09:54:31.715Z,3.78
2022-09-15T09:56:59.071Z,5.05
2022-09-15T09:59:26.229Z,5.03
2022-09-15T10:01:53.482Z,5.05
2022-09-15T10:04:21.288Z,4.43
2022-09-15T10:06:49.269Z,3.58
2022-09-15T10:09:16.479Z,4.00
2022-09-15T10:11:44.033Z,4.63
2022-09-15T10:14:11.184Z,3.85
2022-09-15T10:16:38.431Z,2.70
2022-09-15T10:19:05.786Z,3.25
2022-09-15T10:21:32.962Z,3.25
2022-09-15T10:24:02.005Z,3.40
2022-09-15T10:26:29.449Z,4.00
2022-09-15T10:28:56.588Z,2.78
2022-09-15T10:31:24.000Z,2.90
2022-09-15T10:33:51.448Z,3.03
2022-09-15T10:36:18.674Z,2.65
2022-09-15T10:38:45.881Z,2.88
2022-09-15T10:41:13.108Z,3.38
2022-09-15T10:43:40.303Z,4.50
2022-09-15T10:46:07.651Z,3.22
2022-09-15T10:48:34.981Z,3.80
2022-09-15T10:51:02.285Z,3.25
2022-09-15T10:53:29.448Z,4.00
2022-09-15T10:55:56.649Z,3.80
2022-09-15T10:58:23.816Z,4.03
2022-09-15T11:00:51.057Z,3.25
2022-09-15T11:03:18.248Z,3.58
2022-09-15T11:05:45.525Z,2.83
2022-09-15T11:08:12.913Z,2.90
2022-09-15T11:10:40.156Z,2.58
2022-09-15T11:13:07.376Z,2.85
2022-09-15T11:15:34.672Z,2.78
2022-09-15T11:18:01.824Z,2.75
2022-09-15T11:20:29.380Z,2.28
2022-09-15T11:22:56.532Z,2.97
2022-09-15T11:25:23.721Z,2.50
2022-09-15T11:27:50.910Z,2.25
2022-09-15T11:30:18.681Z,2.10
2022-09-15T11:32:46.249Z,2.50
2022-09-15T11:35:13.470Z,2.25
2022-09-15T11:37:40.682Z,2.42
2022-09-15T11:40:09.129Z,2.30
2022-09-15T11:42:36.471Z,2.70
2022-09-15T11:45:03.698Z,2.33
2022-09-15T11:47:30.890Z,2.42
2022-09-15T11:49:58.154Z,2.30
2022-09-15T11:52:25.418Z,2.10
2022-09-15T11:54:52.635Z,2.30
2022-09-15T11:57:19.835Z,2.85
2022-09-15T11:59:47.117Z,3.22
2022-09-15T12:02:14.446Z,3.60
2022-09-15T12:04:41.716Z,2.88
2022-09-15T12:07:11.121Z,3.42
2022-09-15T12:09:40.998Z,2.92
2022-09-15T12:12:08.160Z,3.08
2022-09-15T12:14:35.393Z,3.38
2022-09-15T12:17:02.694Z,4.05
2022-09-15T12:19:29.946Z,2.63
2022-09-15T12:21:57.128Z,3.13
2022-09-15T12:24:24.394Z,2.97
2022-09-15T12:26:51.689Z,3.05
2022-09-15T12:29:18.946Z,3.45
2022-09-15T12:31:47.002Z,4.60
2022-09-15T12:34:14.417Z,4.10
2022-09-15T12:36:41.724Z,3.70
2022-09-15T12:39:08.940Z,2.60
2022-09-15T12:41:36.079Z,2.28
2022-09-15T12:44:03.328Z,2.30
2022-09-15T12:46:31.047Z,2.55
2022-09-15T12:48:59.017Z,1.98
2022-09-15T12:51:26.412Z,2.28
2022-09-15T12:53:53.795Z,2.17
2022-09-15T12:56:21.138Z,2.20
2022-09-15T12:58:48.456Z,2.03
2022-09-15T13:01:18.413Z,1.90
2022-09-15T13:03:46.010Z,1.90
2022-09-15T13:06:13.376Z,1.95
2022-09-15T13:08:40.584Z,1.98
2022-09-15T13:11:07.770Z,1.92
2022-09-15T13:13:35.236Z,2.08
2022-09-15T13:16:02.497Z,2.22
2022-09-15T13:18:29.735Z,1.67
2022-09-15T13:20:57.017Z,1.70
2022-09-15T13:23:25.028Z,2.03
2022-09-15T13:25:52.202Z,1.63
2022-09-15T13:28:19.529Z,1.80
2022-09-15T13:30:46.829Z,1.83
2022-09-15T13:33:15.542Z,1.90
2022-09-15T13:35:42.748Z,2.55
2022-09-15T13:38:20.176Z,1.40
2022-09-15T13:40:50.484Z,1.77
2022-09-15T13:43:17.665Z,1.52
2022-09-15T13:45:44.954Z,2.15
2022-09-15T13:48:12.202Z,2.58
2022-09-15T13:50:40.190Z,2.28
2022-09-15T13:53:07.626Z,1.70
2022-09-15T13:55:35.031Z,1.70
2022-09-15T14:00:49.485Z,1.63
2022-09-15T14:03:17.453Z,2.90
2022-09-15T14:05:44.828Z,2.05
2022-09-15T14:08:12.009Z,2.03
2022-09-15T14:10:39.340Z,2.50
2022-09-15T14:13:06.512Z,2.08
2022-09-15T14:15:34.182Z,1.80
2022-09-15T14:18:01.443Z,1.67
2022-09-15T14:20:28.742Z,1.73
2022-09-15T14:22:55.993Z,1.52
2022-09-15T14:25:23.271Z,2.13
2022-09-15T14:27:50.752Z,1.60
2022-09-15T14:30:18.064Z,2.50
2022-09-15T14:32:45.730Z,2.85
2022-09-15T14:35:15.988Z,2.00
2022-09-15T14:37:46.254Z,2.30
2022-09-15T14:40:13.490Z,2.03
2022-09-15T14:42:40.801Z,2.00
2022-09-15T14:47:55.179Z,1.85
2022-09-15T14:50:22.407Z,1.60
2022-09-15T14:52:49.578Z,2.10
2022-09-15T14:55:16.775Z,2.90
2022-09-15T15:00:12.206Z,2.33
2022-09-15T15:02:39.570Z,1.80
2022-09-15T15:05:06.881Z,2.13
2022-09-15T15:07:34.121Z,1.98
2022-09-15T15:10:01.307Z,1.88
2022-09-15T15:12:28.614Z,2.08
2022-09-15T15:14:56.064Z,2.17
2022-09-15T15:17:23.333Z,1.90
2022-09-15T15:19:51.778Z,1.98
2022-09-15T15:22:19.261Z,1.80
2022-09-15T15:24:46.448Z,2.33
2022-09-15T15:27:13.751Z,1.85
2022-09-15T15:29:40.982Z,2.00
2022-09-15T15:32:08.211Z,2.50
2022-09-15T15:34:35.441Z,2.40
2022-09-15T15:37:02.930Z,1.80
2022-09-15T15:39:30.083Z,1.92
2022-09-15T15:41:57.289Z,1.83
2022-09-15T15:44:24.450Z,1.67
2022-09-15T15:46:51.662Z,2.45
2022-09-15T15:49:18.869Z,2.10
2022-09-15T15:51:46.157Z,2.08
2022-09-15T15:54:13.330Z,2.17
2022-09-15T15:56:40.594Z,2.13
2022-09-15T15:59:07.848Z,1.75
2022-09-15T16:01:35.166Z,2.25
2022-09-15T16:04:02.695Z,1.92
2022-09-15T16:06:30.016Z,2.50
2022-09-15T16:08:58.174Z,2.10
2022-09-15T16:11:25.493Z,2.00
2022-09-15T16:13:52.732Z,2.03
2022-09-15T16:16:20.080Z,2.13
2022-09-15T16:18:47.288Z,1.80
2022-09-15T16:21:14.483Z,2.75
2022-09-15T16:23:41.743Z,1.77
2022-09-15T16:26:09.033Z,1.92
2022-09-15T16:28:36.241Z,1.80
2022-09-15T16:31:03.582Z,1.65
2022-09-15T16:33:33.463Z,1.70
2022-09-15T16:36:07.095Z,2.33
2022-09-15T16:38:34.391Z,1.92
2022-09-15T16:41:01.621Z,2.17
2022-09-15T16:43:28.822Z,1.45
2022-09-15T16:45:56.020Z,1.80
2022-09-15T16:48:23.324Z,1.42
2022-09-15T16:51:09.572Z,1.40
2022-09-15T16:53:38.063Z,1.25
2022-09-15T16:56:05.272Z,1.50
2022-09-15T16:58:32.477Z,1.60
2022-09-15T17:00:59.836Z,2.00
2022-09-15T17:03:27.090Z,2.45
2022-09-15T17:05:54.332Z,1.70
2022-09-15T17:08:21.627Z,1.20
2022-09-15T17:10:48.773Z,1.38
2022-09-15T17:13:17.495Z,1.50
2022-09-15T17:15:45.921Z,2.55
2022-09-15T17:18:16.402Z,1.38
2022-09-15T17:20:43.665Z,1.40
2022-09-15T17:23:10.839Z,1.42
2022-09-15T17:25:38.092Z,1.88
2022-09-15T17:28:05.278Z,1.40
2022-09-15T17:30:32.686Z,1.75
2022-09-15T17:33:00.024Z,1.40
2022-09-15T17:35:27.177Z,1.58
2022-09-15T17:37:54.397Z,1.40
2022-09-15T17:40:21.805Z,1.60
2022-09-15T17:42:49.137Z,1.80
2022-09-15T17:45:16.414Z,1.90
2022-09-15T17:47:43.626Z,1.35
2022-09-15T17:50:10.964Z,1.42
2022-09-15T17:52:38.199Z,1.52
2022-09-15T17:55:05.372Z,1.95
2022-09-15T17:57:32.547Z,1.45
2022-09-15T17:59:59.785Z,1.63
2022-09-15T18:02:27.280Z,1.27
2022-09-15T18:04:54.545Z,1.83
2022-09-15T18:07:21.848Z,2.65
2022-09-15T18:09:48.994Z,1.70
2022-09-15T18:12:16.247Z,1.77
2022-09-15T18:14:43.411Z,1.65
2022-09-15T18:17:12.024Z,1.52
2022-09-15T18:19:40.346Z,2.10
2022-09-15T18:22:07.590Z,1.58
2022-09-15T18:24:34.759Z,1.80
2022-09-15T18:27:01.961Z,1.48
2022-09-15T18:29:29.162Z,1.27
2022-09-15T18:31:58.067Z,1.92
2022-09-15T18:34:25.257Z,1.45
2022-09-15T18:36:52.628Z,1.80
2022-09-15T18:39:19.801Z,1.70
2022-09-15T18:44:16.142Z,1.55
2022-09-15T18:46:43.804Z,1.60
2022-09-15T18:49:11.030Z,1.58
2022-09-15T18:51:51.185Z,1.65
2022-09-15T18:54:19.181Z,1.67
2022-09-15T18:56:46.443Z,2.22
2022-09-15T18:59:16.655Z,2.00
2022-09-15T19:01:45.234Z,2.40
2022-09-15T19:04:12.586Z,2.40
2022-09-15T19:06:39.866Z,2.60
2022-09-15T19:09:07.038Z,1.70
2022-09-15T19:11:34.266Z,1.70
2022-09-15T19:14:01.527Z,1.52
2022-09-15T19:16:46.591Z,1.90
2022-09-15T19:19:16.007Z,2.20
2022-09-15T19:21:43.172Z,1.75
2022-09-15T19:24:10.405Z,1.60
2022-09-15T19:26:37.685Z,2.70
2022-09-15T19:29:05.042Z,3.13
2022-09-15T19:31:32.229Z,3.13
2022-09-15T19:33:59.516Z,2.60
2022-09-15T19:36:28.974Z,2.78
2022-09-15T19:38:56.736Z,2.28
2022-09-15T19:41:23.996Z,2.40
2022-09-15T19:43:51.267Z,1.90
2022-09-15T19:46:18.493Z,2.38
2022-09-15T19:48:49.980Z,2.28
2022-09-15T19:51:17.432Z,2.05
2022-09-15T19:53:44.700Z,1.88
2022-09-15T19:56:12.008Z,2.50
2022-09-15T19:58:39.236Z,2.03
2022-09-15T20:01:06.569Z,1.92
2022-09-15T20:03:33.848Z,2.63
2022-09-15T20:06:01.122Z,2.00
2022-09-15T20:08:28.284Z,1.73
2022-09-15T20:10:55.657Z,1.67
2022-09-15T20:13:22.835Z,1.60
2022-09-15T20:15:50.124Z,1.88
2022-09-15T20:18:17.938Z,1.40
2022-09-15T20:20:45.258Z,2.45
2022-09-15T20:23:13.110Z,1.10
2022-09-15T20:25:40.325Z,1.60
2022-09-15T20:28:07.509Z,1.42
2022-09-15T20:30:34.884Z,1.10
2022-09-15T20:33:02.091Z,1.40
2022-09-15T20:35:29.445Z,1.58
2022-09-15T20:37:56.747Z,1.85
2022-09-15T20:40:24.118Z,2.55
2022-09-15T20:42:51.372Z,1.88
2022-09-15T20:45:18.584Z,1.80
2022-09-15T20:47:45.758Z,1.95
2022-09-15T20:50:13.107Z,2.58
2022-09-15T20:52:40.885Z,3.35
2022-09-15T20:55:08.107Z,2.63
2022-09-15T20:57:35.365Z,2.33
2022-09-15T21:00:04.995Z,2.05
2022-09-15T21:02:32.338Z,1.88
2022-09-15T21:04:59.561Z,2.08
2022-09-15T21:07:26.720Z,1.58
2022-09-15T21:09:54.011Z,1.60
2022-09-15T21:12:22.054Z,1.98
2022-09-15T21:14:49.315Z,1.52
2022-09-15T21:17:16.757Z,1.52
2022-09-15T21:19:44.434Z,1.50
2022-09-15T21:22:11.610Z,1.50
2022-09-15T21:24:38.805Z,2.20
2022-09-15T21:27:24.729Z,1.33
2022-09-15T21:29:51.954Z,1.60
2022-09-15T21:32:19.737Z,1.38
2022-09-15T21:34:47.378Z,1.80
2022-09-15T21:37:14.573Z,1.48
2022-09-15T21:39:41.793Z,1.27
2022-09-15T21:42:10.285Z,1.40
2022-09-15T21:44:37.513Z,1.33
2022-09-15T21:47:04.686Z,1.38
2022-09-15T21:49:33.051Z,1.33
2022-09-15T21:52:00.228Z,1.20
2022-09-15T21:54:27.454Z,1.25
2022-09-15T21:56:54.650Z,1.77
2022-09-15T21:59:21.916Z,1.70
2022-09-15T22:01:49.123Z,1.73
2022-09-15T22:04:16.426Z,1.17
2022-09-15T22:06:43.662Z,1.23
2022-09-15T22:09:10.892Z,1.40
2022-09-15T22:11:38.140Z,1.48
2022-09-15T22:14:08.127Z,1.20
2022-09-15T22:16:35.469Z,1.40
2022-09-15T22:19:02.766Z,0.93
2022-09-15T22:21:31.447Z,1.60
2022-09-15T22:23:59.224Z,1.48
2022-09-15T22:26:26.573Z,1.88
2022-09-15T22:28:53.808Z,1.85
2022-09-15T22:31:21.163Z,1.38
2022-09-15T22:33:48.496Z,2.10
2022-09-15T22:36:15.730Z,1.77
2022-09-15T22:38:42.988Z,1.88
2022-09-15T22:41:10.247Z,1.40
2022-09-15T22:43:37.439Z,1.38
2022-09-15T22:46:04.754Z,1.60
2022-09-15T22:48:32.038Z,1.55
2022-09-15T22:50:59.260Z,1.70
2022-09-15T22:53:26.507Z,1.55
2022-09-15T22:55:53.764Z,1.73
2022-09-15T22:58:21.129Z,1.55
2022-09-15T23:00:48.407Z,1.67
2022-09-15T23:03:15.703Z,1.40
2022-09-15T23:05:42.962Z,1.95
2022-09-15T23:08:10.149Z,2.15
2022-09-15T23:10:37.418Z,1.83
2022-09-15T23:13:04.714Z,1.83
2022-09-15T23:15:32.075Z,1.50
2022-09-15T23:17:59.332Z,1.77
2022-09-15T23:20:26.540Z,1.50
2022-09-15T23:22:53.717Z,2.03
2022-09-15T23:25:20.930Z,1.80
2022-09-15T23:27:48.118Z,2.00
2022-09-15T23:30:15.552Z,3.28
2022-09-15T23:32:42.820Z,2.80
2022-09-15T23:35:10.025Z,2.63
2022-09-15T23:37:37.217Z,2.10
2022-09-15T23:40:04.520Z,2.33
2022-09-15T23:42:31.723Z,2.50
2022-09-15T23:44:58.931Z,1.70
2022-09-15T23:47:26.135Z,1.77
2022-09-15T23:49:53.377Z,2.03
2022-09-15T23:52:20.615Z,2.15
2022-09-15T23:54:47.816Z,1.75
2022-09-15T23:57:15.046Z,2.17
2022-09-15T23:59:42.287Z,2.22
